sensor_id;sensor_type;location;lat;lon;timestamp;P1;durP1;ratioP1;P2;durP2;ratioP2
42140;SDS011;27809;51.864;5.646;2023-04-06T00:01:33;6.90;;;3.45;;
42140;SDS011;27809;51.864;5.646;2023-04-06T00:03:59;6.68;;;3.60;;
42140;SDS011;27809;51.864;5.646;2023-04-06T00:06:25;11.30;;;3.47;;
42140;SDS011;27809;51.864;5.646;2023-04-06T00:08:50;8.52;;;4.43;;
42140;SDS011;27809;51.864;5.646;2023-04-06T00:11:16;10.05;;;4.38;;
42140;SDS011;27809;51.864;5.646;2023-04-06T00:13:41;13.88;;;4.93;;
42140;SDS011;27809;51.864;5.646;2023-04-06T00:16:07;4.93;;;2.80;;
42140;SDS011;27809;51.864;5.646;2023-04-06T00:18:33;6.38;;;3.20;;
42140;SDS011;27809;51.864;5.646;2023-04-06T00:20:58;9.70;;;3.95;;
42140;SDS011;27809;51.864;5.646;2023-04-06T00:23:24;7.65;;;3.53;;
42140;SDS011;27809;51.864;5.646;2023-04-06T00:25:49;5.65;;;2.35;;
42140;SDS011;27809;51.864;5.646;2023-04-06T00:28:15;6.43;;;2.88;;
42140;SDS011;27809;51.864;5.646;2023-04-06T00:30:41;9.57;;;3.38;;
42140;SDS011;27809;51.864;5.646;2023-04-06T00:33:06;8.30;;;3.47;;
42140;SDS011;27809;51.864;5.646;2023-04-06T00:35:32;7.20;;;2.53;;
42140;SDS011;27809;51.864;5.646;2023-04-06T00:37:57;8.95;;;4.22;;
42140;SDS011;27809;51.864;5.646;2023-04-06T00:40:23;7.07;;;3.28;;
42140;SDS011;27809;51.864;5.646;2023-04-06T00:42:49;7.13;;;3.00;;
42140;SDS011;27809;51.864;5.646;2023-04-06T00:45:14;12.10;;;4.13;;
42140;SDS011;27809;51.864;5.646;2023-04-06T00:47:40;7.68;;;3.58;;
42140;SDS011;27809;51.864;5.646;2023-04-06T00:50:06;10.63;;;3.17;;
42140;SDS011;27809;51.864;5.646;2023-04-06T00:52:33;8.38;;;3.67;;
42140;SDS011;27809;51.864;5.646;2023-04-06T00:54:59;6.65;;;3.25;;
42140;SDS011;27809;51.864;5.646;2023-04-06T00:57:25;12.90;;;2.83;;
42140;SDS011;27809;51.864;5.646;2023-04-06T00:59:51;5.65;;;3.45;;
42140;SDS011;27809;51.864;5.646;2023-04-06T01:02:17;6.57;;;3.50;;
42140;SDS011;27809;51.864;5.646;2023-04-06T01:04:43;7.57;;;3.22;;
42140;SDS011;27809;51.864;5.646;2023-04-06T01:07:09;7.53;;;2.83;;
42140;SDS011;27809;51.864;5.646;2023-04-06T01:09:35;8.57;;;3.50;;
42140;SDS011;27809;51.864;5.646;2023-04-06T01:12:00;9.60;;;3.03;;
42140;SDS011;27809;51.864;5.646;2023-04-06T01:14:26;6.88;;;3.10;;
42140;SDS011;27809;51.864;5.646;2023-04-06T01:16:51;7.20;;;3.40;;
42140;SDS011;27809;51.864;5.646;2023-04-06T01:19:17;7.97;;;3.75;;
42140;SDS011;27809;51.864;5.646;2023-04-06T01:21:44;10.43;;;3.40;;
42140;SDS011;27809;51.864;5.646;2023-04-06T01:24:10;7.07;;;3.13;;
42140;SDS011;27809;51.864;5.646;2023-04-06T01:26:36;11.93;;;2.92;;
42140;SDS011;27809;51.864;5.646;2023-04-06T01:29:02;6.35;;;3.33;;
42140;SDS011;27809;51.864;5.646;2023-04-06T01:31:29;8.98;;;3.35;;
42140;SDS011;27809;51.864;5.646;2023-04-06T01:33:54;7.75;;;2.75;;
42140;SDS011;27809;51.864;5.646;2023-04-06T01:36:20;7.47;;;3.30;;
42140;SDS011;27809;51.864;5.646;2023-04-06T01:38:46;7.45;;;3.22;;
42140;SDS011;27809;51.864;5.646;2023-04-06T01:41:12;10.50;;;3.70;;
42140;SDS011;27809;51.864;5.646;2023-04-06T01:43:37;9.40;;;3.72;;
42140;SDS011;27809;51.864;5.646;2023-04-06T01:46:03;8.85;;;3.85;;
42140;SDS011;27809;51.864;5.646;2023-04-06T01:48:30;5.95;;;3.35;;
42140;SDS011;27809;51.864;5.646;2023-04-06T01:50:55;7.20;;;3.20;;
42140;SDS011;27809;51.864;5.646;2023-04-06T01:53:21;9.18;;;4.10;;
42140;SDS011;27809;51.864;5.646;2023-04-06T01:55:46;8.68;;;3.63;;
42140;SDS011;27809;51.864;5.646;2023-04-06T01:58:12;10.95;;;4.10;;
42140;SDS011;27809;51.864;5.646;2023-04-06T02:00:38;10.43;;;3.58;;
42140;SDS011;27809;51.864;5.646;2023-04-06T02:03:04;6.45;;;3.50;;
42140;SDS011;27809;51.864;5.646;2023-04-06T02:05:30;10.23;;;4.53;;
42140;SDS011;27809;51.864;5.646;2023-04-06T02:07:58;8.65;;;3.38;;
42140;SDS011;27809;51.864;5.646;2023-04-06T02:10:23;7.93;;;2.92;;
42140;SDS011;27809;51.864;5.646;2023-04-06T02:12:49;10.82;;;4.10;;
42140;SDS011;27809;51.864;5.646;2023-04-06T02:15:15;8.38;;;3.92;;
42140;SDS011;27809;51.864;5.646;2023-04-06T02:17:41;8.38;;;4.30;;
42140;SDS011;27809;51.864;5.646;2023-04-06T02:20:07;7.82;;;3.65;;
42140;SDS011;27809;51.864;5.646;2023-04-06T02:22:34;10.73;;;5.07;;
42140;SDS011;27809;51.864;5.646;2023-04-06T02:25:00;8.98;;;3.88;;
42140;SDS011;27809;51.864;5.646;2023-04-06T02:27:26;8.02;;;3.58;;
42140;SDS011;27809;51.864;5.646;2023-04-06T02:29:51;7.43;;;3.63;;
42140;SDS011;27809;51.864;5.646;2023-04-06T02:32:17;6.82;;;3.38;;
42140;SDS011;27809;51.864;5.646;2023-04-06T02:34:42;8.73;;;5.30;;
42140;SDS011;27809;51.864;5.646;2023-04-06T02:37:08;8.50;;;3.47;;
42140;SDS011;27809;51.864;5.646;2023-04-06T02:39:33;8.52;;;4.35;;
42140;SDS011;27809;51.864;5.646;2023-04-06T02:41:59;10.82;;;4.55;;
42140;SDS011;27809;51.864;5.646;2023-04-06T02:44:24;7.00;;;3.25;;
42140;SDS011;27809;51.864;5.646;2023-04-06T02:46:50;9.15;;;3.28;;
42140;SDS011;27809;51.864;5.646;2023-04-06T02:49:15;10.90;;;5.43;;
42140;SDS011;27809;51.864;5.646;2023-04-06T02:51:41;6.32;;;3.80;;
42140;SDS011;27809;51.864;5.646;2023-04-06T02:54:07;9.73;;;3.97;;
42140;SDS011;27809;51.864;5.646;2023-04-06T02:56:32;7.55;;;4.05;;
42140;SDS011;27809;51.864;5.646;2023-04-06T02:58:58;9.35;;;4.60;;
42140;SDS011;27809;51.864;5.646;2023-04-06T03:01:23;10.07;;;4.72;;
42140;SDS011;27809;51.864;5.646;2023-04-06T03:03:49;8.65;;;3.97;;
42140;SDS011;27809;51.864;5.646;2023-04-06T03:06:14;8.80;;;4.45;;
42140;SDS011;27809;51.864;5.646;2023-04-06T03:08:40;7.30;;;4.25;;
42140;SDS011;27809;51.864;5.646;2023-04-06T03:11:06;8.20;;;4.03;;
42140;SDS011;27809;51.864;5.646;2023-04-06T03:13:31;8.65;;;3.50;;
42140;SDS011;27809;51.864;5.646;2023-04-06T03:15:56;11.13;;;4.18;;
42140;SDS011;27809;51.864;5.646;2023-04-06T03:18:22;7.75;;;3.75;;
42140;SDS011;27809;51.864;5.646;2023-04-06T03:20:49;13.27;;;4.38;;
42140;SDS011;27809;51.864;5.646;2023-04-06T03:23:15;9.65;;;4.65;;
42140;SDS011;27809;51.864;5.646;2023-04-06T03:25:41;11.77;;;5.60;;
42140;SDS011;27809;51.864;5.646;2023-04-06T03:28:06;12.52;;;5.30;;
42140;SDS011;27809;51.864;5.646;2023-04-06T03:30:32;10.70;;;5.38;;
42140;SDS011;27809;51.864;5.646;2023-04-06T03:32:57;12.85;;;4.97;;
42140;SDS011;27809;51.864;5.646;2023-04-06T03:35:23;10.80;;;5.60;;
42140;SDS011;27809;51.864;5.646;2023-04-06T03:37:49;9.00;;;4.30;;
42140;SDS011;27809;51.864;5.646;2023-04-06T03:40:15;10.35;;;5.55;;
42140;SDS011;27809;51.864;5.646;2023-04-06T03:42:40;10.60;;;4.85;;
42140;SDS011;27809;51.864;5.646;2023-04-06T03:45:06;15.57;;;5.82;;
42140;SDS011;27809;51.864;5.646;2023-04-06T03:47:32;8.02;;;3.75;;
42140;SDS011;27809;51.864;5.646;2023-04-06T03:49:58;12.38;;;5.35;;
42140;SDS011;27809;51.864;5.646;2023-04-06T03:52:23;9.40;;;4.25;;
42140;SDS011;27809;51.864;5.646;2023-04-06T03:54:49;11.40;;;5.15;;
42140;SDS011;27809;51.864;5.646;2023-04-06T03:57:14;11.63;;;5.13;;
42140;SDS011;27809;51.864;5.646;2023-04-06T03:59:40;11.32;;;3.78;;
42140;SDS011;27809;51.864;5.646;2023-04-06T04:02:06;10.05;;;4.97;;
42140;SDS011;27809;51.864;5.646;2023-04-06T04:04:31;13.55;;;5.63;;
42140;SDS011;27809;51.864;5.646;2023-04-06T04:06:57;12.82;;;6.40;;
42140;SDS011;27809;51.864;5.646;2023-04-06T04:09:22;13.73;;;5.45;;
42140;SDS011;27809;51.864;5.646;2023-04-06T04:11:48;12.63;;;5.63;;
42140;SDS011;27809;51.864;5.646;2023-04-06T04:14:13;12.18;;;5.78;;
42140;SDS011;27809;51.864;5.646;2023-04-06T04:16:39;15.18;;;6.32;;
42140;SDS011;27809;51.864;5.646;2023-04-06T04:19:06;14.13;;;5.05;;
42140;SDS011;27809;51.864;5.646;2023-04-06T04:21:31;15.02;;;6.18;;
42140;SDS011;27809;51.864;5.646;2023-04-06T04:23:57;14.25;;;6.80;;
42140;SDS011;27809;51.864;5.646;2023-04-06T04:26:22;11.30;;;5.72;;
42140;SDS011;27809;51.864;5.646;2023-04-06T04:28:48;11.73;;;5.10;;
42140;SDS011;27809;51.864;5.646;2023-04-06T04:31:13;10.95;;;5.10;;
42140;SDS011;27809;51.864;5.646;2023-04-06T04:33:39;13.50;;;6.20;;
42140;SDS011;27809;51.864;5.646;2023-04-06T04:36:05;14.57;;;6.57;;
42140;SDS011;27809;51.864;5.646;2023-04-06T04:38:30;13.25;;;4.85;;
42140;SDS011;27809;51.864;5.646;2023-04-06T04:40:56;13.15;;;5.88;;
42140;SDS011;27809;51.864;5.646;2023-04-06T04:43:21;14.45;;;6.07;;
42140;SDS011;27809;51.864;5.646;2023-04-06T04:45:47;12.18;;;5.93;;
42140;SDS011;27809;51.864;5.646;2023-04-06T04:48:12;13.88;;;6.97;;
42140;SDS011;27809;51.864;5.646;2023-04-06T04:50:38;14.15;;;6.57;;
42140;SDS011;27809;51.864;5.646;2023-04-06T04:53:03;11.63;;;5.55;;
42140;SDS011;27809;51.864;5.646;2023-04-06T04:55:32;13.20;;;5.82;;
42140;SDS011;27809;51.864;5.646;2023-04-06T04:57:57;14.20;;;6.05;;
42140;SDS011;27809;51.864;5.646;2023-04-06T05:00:23;15.75;;;6.53;;
42140;SDS011;27809;51.864;5.646;2023-04-06T05:02:49;11.68;;;5.78;;
42140;SDS011;27809;51.864;5.646;2023-04-06T05:05:14;14.35;;;6.40;;
42140;SDS011;27809;51.864;5.646;2023-04-06T05:07:40;13.02;;;6.10;;
42140;SDS011;27809;51.864;5.646;2023-04-06T05:10:05;12.82;;;6.47;;
42140;SDS011;27809;51.864;5.646;2023-04-06T05:12:31;18.55;;;7.68;;
42140;SDS011;27809;51.864;5.646;2023-04-06T05:14:57;13.90;;;6.03;;
42140;SDS011;27809;51.864;5.646;2023-04-06T05:17:23;16.48;;;6.38;;
42140;SDS011;27809;51.864;5.646;2023-04-06T05:19:48;12.65;;;6.35;;
42140;SDS011;27809;51.864;5.646;2023-04-06T05:22:14;13.75;;;6.20;;
42140;SDS011;27809;51.864;5.646;2023-04-06T05:24:42;13.88;;;7.45;;
42140;SDS011;27809;51.864;5.646;2023-04-06T05:27:08;28.55;;;7.90;;
42140;SDS011;27809;51.864;5.646;2023-04-06T05:29:33;19.17;;;7.57;;
42140;SDS011;27809;51.864;5.646;2023-04-06T05:31:59;23.17;;;8.27;;
42140;SDS011;27809;51.864;5.646;2023-04-06T05:34:24;13.30;;;7.80;;
42140;SDS011;27809;51.864;5.646;2023-04-06T05:36:50;12.50;;;5.07;;
42140;SDS011;27809;51.864;5.646;2023-04-06T05:39:16;15.68;;;7.30;;
42140;SDS011;27809;51.864;5.646;2023-04-06T05:41:41;19.27;;;6.50;;
42140;SDS011;27809;51.864;5.646;2023-04-06T05:44:07;14.43;;;6.43;;
42140;SDS011;27809;51.864;5.646;2023-04-06T05:46:32;13.93;;;6.22;;
42140;SDS011;27809;51.864;5.646;2023-04-06T05:48:58;21.15;;;7.00;;
42140;SDS011;27809;51.864;5.646;2023-04-06T05:51:23;16.50;;;7.85;;
42140;SDS011;27809;51.864;5.646;2023-04-06T05:53:49;14.55;;;5.90;;
42140;SDS011;27809;51.864;5.646;2023-04-06T05:56:15;17.08;;;7.50;;
42140;SDS011;27809;51.864;5.646;2023-04-06T05:58:41;13.27;;;6.50;;
42140;SDS011;27809;51.864;5.646;2023-04-06T06:01:06;19.40;;;7.57;;
42140;SDS011;27809;51.864;5.646;2023-04-06T06:03:33;13.90;;;7.28;;
42140;SDS011;27809;51.864;5.646;2023-04-06T06:06:03;13.63;;;6.10;;
42140;SDS011;27809;51.864;5.646;2023-04-06T06:08:29;13.23;;;6.40;;
42140;SDS011;27809;51.864;5.646;2023-04-06T06:10:55;18.42;;;8.02;;
42140;SDS011;27809;51.864;5.646;2023-04-06T06:13:21;17.23;;;7.30;;
42140;SDS011;27809;51.864;5.646;2023-04-06T06:15:47;14.63;;;7.07;;
42140;SDS011;27809;51.864;5.646;2023-04-06T06:18:13;15.73;;;7.38;;
42140;SDS011;27809;51.864;5.646;2023-04-06T06:20:39;17.30;;;7.75;;
42140;SDS011;27809;51.864;5.646;2023-04-06T06:23:04;15.88;;;5.88;;
42140;SDS011;27809;51.864;5.646;2023-04-06T06:25:30;15.95;;;7.10;;
42140;SDS011;27809;51.864;5.646;2023-04-06T06:27:56;14.13;;;6.70;;
42140;SDS011;27809;51.864;5.646;2023-04-06T06:30:21;18.30;;;6.47;;
42140;SDS011;27809;51.864;5.646;2023-04-06T06:32:47;18.95;;;8.23;;
42140;SDS011;27809;51.864;5.646;2023-04-06T06:35:13;20.23;;;7.78;;
42140;SDS011;27809;51.864;5.646;2023-04-06T06:37:39;15.18;;;7.05;;
42140;SDS011;27809;51.864;5.646;2023-04-06T06:40:04;18.13;;;6.38;;
42140;SDS011;27809;51.864;5.646;2023-04-06T06:42:30;17.13;;;8.77;;
42140;SDS011;27809;51.864;5.646;2023-04-06T06:44:56;18.65;;;7.55;;
42140;SDS011;27809;51.864;5.646;2023-04-06T06:47:21;14.77;;;6.25;;
42140;SDS011;27809;51.864;5.646;2023-04-06T06:49:47;17.63;;;7.00;;
42140;SDS011;27809;51.864;5.646;2023-04-06T06:52:12;14.57;;;7.35;;
42140;SDS011;27809;51.864;5.646;2023-04-06T06:54:38;16.67;;;7.28;;
42140;SDS011;27809;51.864;5.646;2023-04-06T06:57:03;16.48;;;9.13;;
42140;SDS011;27809;51.864;5.646;2023-04-06T06:59:29;15.93;;;7.22;;
42140;SDS011;27809;51.864;5.646;2023-04-06T07:01:54;16.90;;;8.70;;
42140;SDS011;27809;51.864;5.646;2023-04-06T07:04:20;21.58;;;9.20;;
42140;SDS011;27809;51.864;5.646;2023-04-06T07:06:46;15.23;;;6.95;;
42140;SDS011;27809;51.864;5.646;2023-04-06T07:09:11;20.67;;;8.40;;
42140;SDS011;27809;51.864;5.646;2023-04-06T07:11:37;15.50;;;8.48;;
42140;SDS011;27809;51.864;5.646;2023-04-06T07:14:02;15.23;;;7.57;;
42140;SDS011;27809;51.864;5.646;2023-04-06T07:16:28;16.02;;;8.25;;
42140;SDS011;27809;51.864;5.646;2023-04-06T07:18:53;17.90;;;8.63;;
42140;SDS011;27809;51.864;5.646;2023-04-06T07:21:19;14.98;;;7.97;;
42140;SDS011;27809;51.864;5.646;2023-04-06T07:23:44;22.85;;;9.25;;
42140;SDS011;27809;51.864;5.646;2023-04-06T07:26:10;17.20;;;7.43;;
42140;SDS011;27809;51.864;5.646;2023-04-06T07:28:36;18.42;;;8.68;;
42140;SDS011;27809;51.864;5.646;2023-04-06T07:31:01;15.98;;;8.45;;
42140;SDS011;27809;51.864;5.646;2023-04-06T07:33:27;19.77;;;8.43;;
42140;SDS011;27809;51.864;5.646;2023-04-06T07:35:55;16.73;;;8.15;;
42140;SDS011;27809;51.864;5.646;2023-04-06T07:38:21;18.27;;;8.15;;
42140;SDS011;27809;51.864;5.646;2023-04-06T07:40:47;17.40;;;8.48;;
42140;SDS011;27809;51.864;5.646;2023-04-06T07:43:12;18.38;;;4.45;;
42140;SDS011;27809;51.864;5.646;2023-04-06T07:45:38;17.42;;;9.00;;
42140;SDS011;27809;51.864;5.646;2023-04-06T07:48:03;23.92;;;9.52;;
42140;SDS011;27809;51.864;5.646;2023-04-06T07:50:29;18.58;;;8.32;;
42140;SDS011;27809;51.864;5.646;2023-04-06T07:52:55;19.17;;;7.40;;
42140;SDS011;27809;51.864;5.646;2023-04-06T07:55:20;21.63;;;10.43;;
42140;SDS011;27809;51.864;5.646;2023-04-06T07:57:46;17.98;;;9.57;;
42140;SDS011;27809;51.864;5.646;2023-04-06T08:00:12;21.42;;;9.27;;
42140;SDS011;27809;51.864;5.646;2023-04-06T08:02:38;18.40;;;10.07;;
42140;SDS011;27809;51.864;5.646;2023-04-06T08:05:04;17.95;;;9.10;;
42140;SDS011;27809;51.864;5.646;2023-04-06T08:07:30;22.02;;;9.00;;
42140;SDS011;27809;51.864;5.646;2023-04-06T08:09:56;14.88;;;8.23;;
42140;SDS011;27809;51.864;5.646;2023-04-06T08:12:21;19.70;;;8.73;;
42140;SDS011;27809;51.864;5.646;2023-04-06T08:14:47;21.05;;;8.38;;
42140;SDS011;27809;51.864;5.646;2023-04-06T08:17:13;18.60;;;9.18;;
42140;SDS011;27809;51.864;5.646;2023-04-06T08:19:38;18.25;;;8.63;;
42140;SDS011;27809;51.864;5.646;2023-04-06T08:22:04;21.73;;;8.20;;
42140;SDS011;27809;51.864;5.646;2023-04-06T08:24:30;17.45;;;9.32;;
42140;SDS011;27809;51.864;5.646;2023-04-06T08:26:57;20.23;;;8.60;;
42140;SDS011;27809;51.864;5.646;2023-04-06T08:29:22;17.58;;;8.07;;
42140;SDS011;27809;51.864;5.646;2023-04-06T08:31:48;20.80;;;8.30;;
42140;SDS011;27809;51.864;5.646;2023-04-06T08:34:13;20.20;;;9.73;;
42140;SDS011;27809;51.864;5.646;2023-04-06T08:36:40;17.73;;;9.00;;
42140;SDS011;27809;51.864;5.646;2023-04-06T08:39:06;19.30;;;8.70;;
42140;SDS011;27809;51.864;5.646;2023-04-06T08:41:31;20.50;;;9.00;;
42140;SDS011;27809;51.864;5.646;2023-04-06T08:43:58;17.58;;;8.60;;
42140;SDS011;27809;51.864;5.646;2023-04-06T08:46:25;23.30;;;8.52;;
42140;SDS011;27809;51.864;5.646;2023-04-06T08:48:55;17.90;;;9.40;;
42140;SDS011;27809;51.864;5.646;2023-04-06T08:51:24;13.88;;;8.02;;
42140;SDS011;27809;51.864;5.646;2023-04-06T08:53:53;23.15;;;9.88;;
42140;SDS011;27809;51.864;5.646;2023-04-06T08:56:21;22.63;;;9.15;;
42140;SDS011;27809;51.864;5.646;2023-04-06T08:58:47;19.05;;;10.30;;
42140;SDS011;27809;51.864;5.646;2023-04-06T09:01:14;20.77;;;9.55;;
42140;SDS011;27809;51.864;5.646;2023-04-06T09:03:42;17.95;;;8.57;;
42140;SDS011;27809;51.864;5.646;2023-04-06T09:06:08;13.73;;;7.97;;
42140;SDS011;27809;51.864;5.646;2023-04-06T09:08:38;23.67;;;10.38;;
42140;SDS011;27809;51.864;5.646;2023-04-06T09:11:05;18.20;;;11.50;;
42140;SDS011;27809;51.864;5.646;2023-04-06T09:13:31;20.75;;;9.75;;
42140;SDS011;27809;51.864;5.646;2023-04-06T09:16:03;15.50;;;7.88;;
42140;SDS011;27809;51.864;5.646;2023-04-06T09:18:32;28.83;;;11.13;;
42140;SDS011;27809;51.864;5.646;2023-04-06T09:21:02;21.60;;;10.35;;
42140;SDS011;27809;51.864;5.646;2023-04-06T09:23:29;19.70;;;9.35;;
42140;SDS011;27809;51.864;5.646;2023-04-06T09:26:09;23.05;;;10.55;;
42140;SDS011;27809;51.864;5.646;2023-04-06T09:31:08;17.52;;;9.90;;
42140;SDS011;27809;51.864;5.646;2023-04-06T09:33:37;15.65;;;8.45;;
42140;SDS011;27809;51.864;5.646;2023-04-06T09:36:04;18.42;;;9.65;;
42140;SDS011;27809;51.864;5.646;2023-04-06T09:38:29;18.92;;;8.98;;
42140;SDS011;27809;51.864;5.646;2023-04-06T09:40:55;19.15;;;8.85;;
42140;SDS011;27809;51.864;5.646;2023-04-06T09:43:24;14.52;;;7.85;;
42140;SDS011;27809;51.864;5.646;2023-04-06T09:45:53;22.48;;;10.07;;
42140;SDS011;27809;51.864;5.646;2023-04-06T09:48:20;48.30;;;9.18;;
42140;SDS011;27809;51.864;5.646;2023-04-06T09:50:48;16.77;;;7.93;;
42140;SDS011;27809;51.864;5.646;2023-04-06T09:53:15;21.40;;;9.57;;
42140;SDS011;27809;51.864;5.646;2023-04-06T09:55:43;19.73;;;9.00;;
42140;SDS011;27809;51.864;5.646;2023-04-06T09:58:12;19.00;;;8.30;;
42140;SDS011;27809;51.864;5.646;2023-04-06T10:00:43;20.08;;;10.13;;
42140;SDS011;27809;51.864;5.646;2023-04-06T10:05:59;19.42;;;9.60;;
42140;SDS011;27809;51.864;5.646;2023-04-06T10:08:35;17.63;;;8.77;;
42140;SDS011;27809;51.864;5.646;2023-04-06T10:11:06;17.92;;;7.95;;
42140;SDS011;27809;51.864;5.646;2023-04-06T10:13:32;15.30;;;8.57;;
42140;SDS011;27809;51.864;5.646;2023-04-06T10:15:59;15.68;;;8.50;;
42140;SDS011;27809;51.864;5.646;2023-04-06T10:18:26;16.10;;;7.55;;
42140;SDS011;27809;51.864;5.646;2023-04-06T10:20:53;23.10;;;9.27;;
42140;SDS011;27809;51.864;5.646;2023-04-06T10:26:13;14.88;;;7.55;;
42140;SDS011;27809;51.864;5.646;2023-04-06T10:28:41;18.10;;;9.02;;
42140;SDS011;27809;51.864;5.646;2023-04-06T10:31:08;12.90;;;7.25;;
42140;SDS011;27809;51.864;5.646;2023-04-06T10:33:34;18.67;;;8.88;;
42140;SDS011;27809;51.864;5.646;2023-04-06T10:36:13;14.68;;;7.38;;
42140;SDS011;27809;51.864;5.646;2023-04-06T10:38:40;21.00;;;7.82;;
42140;SDS011;27809;51.864;5.646;2023-04-06T10:41:07;15.35;;;7.60;;
42140;SDS011;27809;51.864;5.646;2023-04-06T10:43:35;13.10;;;6.60;;
42140;SDS011;27809;51.864;5.646;2023-04-06T10:46:02;20.00;;;9.00;;
42140;SDS011;27809;51.864;5.646;2023-04-06T10:48:38;14.75;;;6.30;;
42140;SDS011;27809;51.864;5.646;2023-04-06T10:51:09;12.13;;;6.57;;
42140;SDS011;27809;51.864;5.646;2023-04-06T10:53:36;14.07;;;5.90;;
42140;SDS011;27809;51.864;5.646;2023-04-06T10:56:02;9.13;;;5.15;;
42140;SDS011;27809;51.864;5.646;2023-04-06T10:58:28;13.35;;;7.47;;
42140;SDS011;27809;51.864;5.646;2023-04-06T11:00:55;10.38;;;5.53;;
42140;SDS011;27809;51.864;5.646;2023-04-06T11:03:21;10.43;;;4.60;;
42140;SDS011;27809;51.864;5.646;2023-04-06T11:05:47;15.82;;;7.13;;
42140;SDS011;27809;51.864;5.646;2023-04-06T11:08:24;12.00;;;5.38;;
42140;SDS011;27809;51.864;5.646;2023-04-06T11:11:10;10.25;;;5.70;;
42140;SDS011;27809;51.864;5.646;2023-04-06T11:16:12;13.50;;;6.03;;
42140;SDS011;27809;51.864;5.646;2023-04-06T11:18:51;10.60;;;5.72;;
42140;SDS011;27809;51.864;5.646;2023-04-06T11:21:18;9.45;;;5.35;;
42140;SDS011;27809;51.864;5.646;2023-04-06T11:23:45;8.40;;;4.60;;
42140;SDS011;27809;51.864;5.646;2023-04-06T11:26:13;5.18;;;2.15;;
42140;SDS011;27809;51.864;5.646;2023-04-06T11:28:40;13.13;;;6.03;;
42140;SDS011;27809;51.864;5.646;2023-04-06T11:31:07;10.73;;;5.35;;
42140;SDS011;27809;51.864;5.646;2023-04-06T11:33:37;10.25;;;5.68;;
42140;SDS011;27809;51.864;5.646;2023-04-06T11:36:07;7.97;;;4.53;;
42140;SDS011;27809;51.864;5.646;2023-04-06T11:38:33;7.93;;;5.05;;
42140;SDS011;27809;51.864;5.646;2023-04-06T11:40:58;13.52;;;5.05;;
42140;SDS011;27809;51.864;5.646;2023-04-06T11:43:26;9.48;;;6.30;;
42140;SDS011;27809;51.864;5.646;2023-04-06T11:46:02;5.70;;;3.15;;
42140;SDS011;27809;51.864;5.646;2023-04-06T11:48:29;6.45;;;4.35;;
42140;SDS011;27809;51.864;5.646;2023-04-06T11:50:56;4.68;;;2.55;;
42140;SDS011;27809;51.864;5.646;2023-04-06T11:53:23;6.65;;;3.28;;
42140;SDS011;27809;51.864;5.646;2023-04-06T11:55:49;6.63;;;2.97;;
42140;SDS011;27809;51.864;5.646;2023-04-06T11:58:15;5.47;;;2.20;;
42140;SDS011;27809;51.864;5.646;2023-04-06T12:00:40;9.57;;;2.78;;
42140;SDS011;27809;51.864;5.646;2023-04-06T12:03:10;5.38;;;3.00;;
42140;SDS011;27809;51.864;5.646;2023-04-06T12:05:39;5.15;;;3.28;;
42140;SDS011;27809;51.864;5.646;2023-04-06T12:08:05;5.72;;;2.03;;
42140;SDS011;27809;51.864;5.646;2023-04-06T12:10:30;4.28;;;1.98;;
42140;SDS011;27809;51.864;5.646;2023-04-06T12:12:56;7.00;;;2.83;;
42140;SDS011;27809;51.864;5.646;2023-04-06T12:15:21;5.10;;;2.40;;
42140;SDS011;27809;51.864;5.646;2023-04-06T12:17:47;5.43;;;2.83;;
42140;SDS011;27809;51.864;5.646;2023-04-06T12:20:13;5.68;;;3.00;;
42140;SDS011;27809;51.864;5.646;2023-04-06T12:22:39;3.60;;;2.60;;
42140;SDS011;27809;51.864;5.646;2023-04-06T12:25:05;4.30;;;1.83;;
42140;SDS011;27809;51.864;5.646;2023-04-06T12:27:31;6.60;;;2.20;;
42140;SDS011;27809;51.864;5.646;2023-04-06T12:29:57;7.32;;;3.63;;
42140;SDS011;27809;51.864;5.646;2023-04-06T12:32:23;5.90;;;2.90;;
42140;SDS011;27809;51.864;5.646;2023-04-06T12:34:48;6.40;;;3.28;;
42140;SDS011;27809;51.864;5.646;2023-04-06T12:37:15;6.75;;;2.92;;
42140;SDS011;27809;51.864;5.646;2023-04-06T12:39:41;6.75;;;2.75;;
42140;SDS011;27809;51.864;5.646;2023-04-06T12:42:09;5.75;;;3.17;;
42140;SDS011;27809;51.864;5.646;2023-04-06T12:44:35;9.88;;;4.63;;
42140;SDS011;27809;51.864;5.646;2023-04-06T12:47:00;4.93;;;2.45;;
42140;SDS011;27809;51.864;5.646;2023-04-06T12:49:26;4.00;;;2.40;;
42140;SDS011;27809;51.864;5.646;2023-04-06T12:51:51;4.57;;;2.72;;
42140;SDS011;27809;51.864;5.646;2023-04-06T12:54:17;7.40;;;2.83;;
42140;SDS011;27809;51.864;5.646;2023-04-06T12:56:42;5.50;;;2.17;;
42140;SDS011;27809;51.864;5.646;2023-04-06T12:59:08;5.80;;;2.85;;
42140;SDS011;27809;51.864;5.646;2023-04-06T13:01:33;8.07;;;4.00;;
42140;SDS011;27809;51.864;5.646;2023-04-06T13:03:59;4.57;;;2.67;;
42140;SDS011;27809;51.864;5.646;2023-04-06T13:06:24;6.97;;;2.72;;
42140;SDS011;27809;51.864;5.646;2023-04-06T13:08:53;4.55;;;3.03;;
42140;SDS011;27809;51.864;5.646;2023-04-06T13:11:19;6.18;;;2.83;;
42140;SDS011;27809;51.864;5.646;2023-04-06T13:13:46;5.28;;;2.63;;
42140;SDS011;27809;51.864;5.646;2023-04-06T13:16:12;4.45;;;2.25;;
42140;SDS011;27809;51.864;5.646;2023-04-06T13:18:37;6.55;;;3.55;;
42140;SDS011;27809;51.864;5.646;2023-04-06T13:21:03;4.47;;;2.22;;
42140;SDS011;27809;51.864;5.646;2023-04-06T13:23:30;7.28;;;3.42;;
42140;SDS011;27809;51.864;5.646;2023-04-06T13:25:56;5.97;;;3.08;;
42140;SDS011;27809;51.864;5.646;2023-04-06T13:28:29;6.45;;;2.88;;
42140;SDS011;27809;51.864;5.646;2023-04-06T13:30:57;6.60;;;2.88;;
42140;SDS011;27809;51.864;5.646;2023-04-06T13:33:23;9.40;;;3.83;;
42140;SDS011;27809;51.864;5.646;2023-04-06T13:35:49;5.97;;;3.00;;
42140;SDS011;27809;51.864;5.646;2023-04-06T13:38:15;8.95;;;3.83;;
42140;SDS011;27809;51.864;5.646;2023-04-06T13:40:41;6.53;;;3.85;;
42140;SDS011;27809;51.864;5.646;2023-04-06T13:43:07;13.68;;;3.83;;
42140;SDS011;27809;51.864;5.646;2023-04-06T13:45:32;7.75;;;3.88;;
42140;SDS011;27809;51.864;5.646;2023-04-06T13:47:58;7.45;;;3.10;;
42140;SDS011;27809;51.864;5.646;2023-04-06T13:50:27;7.60;;;3.00;;
42140;SDS011;27809;51.864;5.646;2023-04-06T13:52:53;7.53;;;4.55;;
42140;SDS011;27809;51.864;5.646;2023-04-06T13:55:19;7.10;;;3.45;;
42140;SDS011;27809;51.864;5.646;2023-04-06T13:57:45;7.45;;;3.70;;
42140;SDS011;27809;51.864;5.646;2023-04-06T14:00:10;7.60;;;4.15;;
42140;SDS011;27809;51.864;5.646;2023-04-06T14:02:37;10.07;;;4.57;;
42140;SDS011;27809;51.864;5.646;2023-04-06T14:05:06;10.40;;;4.82;;
42140;SDS011;27809;51.864;5.646;2023-04-06T14:07:32;7.72;;;3.85;;
42140;SDS011;27809;51.864;5.646;2023-04-06T14:09:57;6.68;;;4.03;;
42140;SDS011;27809;51.864;5.646;2023-04-06T14:12:23;8.95;;;5.05;;
42140;SDS011;27809;51.864;5.646;2023-04-06T14:14:49;10.35;;;4.38;;
42140;SDS011;27809;51.864;5.646;2023-04-06T14:17:15;10.02;;;5.75;;
42140;SDS011;27809;51.864;5.646;2023-04-06T14:19:40;7.50;;;4.43;;
42140;SDS011;27809;51.864;5.646;2023-04-06T14:22:06;10.07;;;4.07;;
42140;SDS011;27809;51.864;5.646;2023-04-06T14:24:33;7.72;;;3.80;;
42140;SDS011;27809;51.864;5.646;2023-04-06T14:27:00;8.57;;;3.90;;
42140;SDS011;27809;51.864;5.646;2023-04-06T14:29:26;11.15;;;4.25;;
42140;SDS011;27809;51.864;5.646;2023-04-06T14:31:51;16.10;;;4.40;;
42140;SDS011;27809;51.864;5.646;2023-04-06T14:34:17;6.80;;;4.00;;
42140;SDS011;27809;51.864;5.646;2023-04-06T14:36:42;7.57;;;4.75;;
42140;SDS011;27809;51.864;5.646;2023-04-06T14:39:08;8.25;;;4.07;;
42140;SDS011;27809;51.864;5.646;2023-04-06T14:41:34;8.40;;;3.65;;
42140;SDS011;27809;51.864;5.646;2023-04-06T14:44:00;8.68;;;4.47;;